createdAt,value
2022-11-24T00:01:27.101Z,26.60
2022-11-24T00:04:03.596Z,26.70
2022-11-24T00:06:34.340Z,26.80
2022-11-24T00:09:03.527Z,26.60
2022-11-24T00:11:34.172Z,26.50
2022-11-24T00:14:03.962Z,26.50
2022-11-24T00:16:37.582Z,26.50
2022-11-24T00:19:10.276Z,26.40
2022-11-24T00:21:39.578Z,26.50
2022-11-24T00:24:07.966Z,26.60
2022-11-24T00:26:37.385Z,26.80
2022-11-24T00:29:07.663Z,26.70
2022-11-24T00:31:38.741Z,26.60
2022-11-24T00:34:14.733Z,26.60
2022-11-24T00:36:43.220Z,26.50
2022-11-24T00:39:15.867Z,26.50
2022-11-24T00:41:44.404Z,26.40
2022-11-24T00:44:12.571Z,26.60
2022-11-24T00:46:40.798Z,26.60
2022-11-24T00:49:09.273Z,26.70
2022-11-24T00:51:37.441Z,26.50
2022-11-24T00:54:05.579Z,26.50
2022-11-24T00:56:33.849Z,26.50
2022-11-24T00:59:02.075Z,26.40
2022-11-24T01:01:30.992Z,26.30
2022-11-24T01:04:01.045Z,26.20
2022-11-24T01:06:30.326Z,26.30
2022-11-24T01:08:59.239Z,26.40
2022-11-24T01:11:30.971Z,26.50
2022-11-24T01:14:00.044Z,26.30
2022-11-24T01:16:32.524Z,26.20
2022-11-24T01:19:01.693Z,26.10
2022-11-24T01:21:29.876Z,26.00
2022-11-24T01:23:58.720Z,25.90
2022-11-24T01:26:27.021Z,25.90
2022-11-24T01:28:57.274Z,26.10
2022-11-24T01:31:26.833Z,26.20
2022-11-24T01:33:55.382Z,26.20
2022-11-24T01:36:23.506Z,26.10
2022-11-24T01:38:52.083Z,25.90
2022-11-24T01:41:25.020Z,25.90
2022-11-24T01:43:54.420Z,25.80
2022-11-24T01:46:45.461Z,25.90
2022-11-24T01:49:20.896Z,25.80
2022-11-24T01:51:55.507Z,26.00
2022-11-24T01:54:31.019Z,26.20
2022-11-24T01:57:04.549Z,26.20
2022-11-24T01:59:33.442Z,26.10
2022-11-24T02:02:02.432Z,26.00
2022-11-24T02:04:33.975Z,25.90
2022-11-24T02:07:06.230Z,25.80
2022-11-24T02:09:43.435Z,25.80
2022-11-24T02:12:12.174Z,25.90
2022-11-24T02:14:42.817Z,26.00
2022-11-24T02:17:11.233Z,26.00
2022-11-24T02:19:54.854Z,25.80
2022-11-24T02:22:35.095Z,25.80
2022-11-24T02:25:30.156Z,25.70
2022-11-24T02:28:02.475Z,25.70
2022-11-24T02:30:30.877Z,25.60
2022-11-24T02:32:59.469Z,25.60
2022-11-24T02:35:28.914Z,25.80
2022-11-24T02:37:57.107Z,25.80
2022-11-24T02:40:28.786Z,25.90
2022-11-24T02:43:12.280Z,25.80
2022-11-24T02:45:40.565Z,25.70
2022-11-24T02:48:08.732Z,25.60
2022-11-24T02:50:37.048Z,25.60
2022-11-24T02:53:05.175Z,25.50
2022-11-24T02:55:33.366Z,25.50
2022-11-24T02:58:01.617Z,25.60
2022-11-24T03:00:29.771Z,25.80
2022-11-24T03:02:58.462Z,25.90
2022-11-24T03:05:27.271Z,25.70
2022-11-24T03:07:55.629Z,25.50
2022-11-24T03:10:23.943Z,25.40
2022-11-24T03:12:52.092Z,25.40
2022-11-24T03:15:20.335Z,25.40
2022-11-24T03:17:48.435Z,25.30
2022-11-24T03:20:16.913Z,25.50
2022-11-24T03:22:45.164Z,25.60
2022-11-24T03:25:13.283Z,25.80
2022-11-24T03:27:41.545Z,25.60
2022-11-24T03:30:10.059Z,25.50
2022-11-24T03:32:38.555Z,25.50
2022-11-24T03:35:07.263Z,25.50
2022-11-24T03:37:35.483Z,25.40
2022-11-24T03:40:03.687Z,25.30
2022-11-24T03:42:31.850Z,25.30
2022-11-24T03:45:16.725Z,25.50
2022-11-24T03:47:52.118Z,25.70
2022-11-24T03:50:19.923Z,25.50
2022-11-24T03:52:48.158Z,25.40
2022-11-24T03:55:16.336Z,25.30
2022-11-24T03:57:44.435Z,25.30
2022-11-24T04:00:13.051Z,25.30
2022-11-24T04:02:41.118Z,25.20
2022-11-24T04:05:09.679Z,25.20
2022-11-24T04:07:38.173Z,25.40
2022-11-24T04:10:07.101Z,25.60
2022-11-24T04:12:35.359Z,25.50
2022-11-24T04:15:03.416Z,25.30
2022-11-24T04:17:31.629Z,25.20
2022-11-24T04:19:59.765Z,25.20
2022-11-24T04:22:28.700Z,25.10
2022-11-24T04:24:56.928Z,25.10
2022-11-24T04:27:25.134Z,25.00
2022-11-24T04:29:53.401Z,25.20
2022-11-24T04:32:21.725Z,25.40
2022-11-24T04:34:49.787Z,25.30
2022-11-24T04:37:18.287Z,25.20
2022-11-24T04:39:46.568Z,25.10
2022-11-24T04:42:14.724Z,25.00
2022-11-24T04:44:42.847Z,25.00
2022-11-24T04:47:20.964Z,25.00
2022-11-24T04:49:49.483Z,24.90
2022-11-24T04:52:18.638Z,25.10
2022-11-24T04:54:48.021Z,25.30
2022-11-24T04:57:21.462Z,25.30
2022-11-24T04:59:51.206Z,25.20
2022-11-24T05:02:20.079Z,25.00
2022-11-24T05:04:48.712Z,25.00
2022-11-24T05:07:19.312Z,25.00
2022-11-24T05:09:58.889Z,24.90
2022-11-24T05:12:28.646Z,24.90
2022-11-24T05:14:56.829Z,25.10
2022-11-24T05:17:25.195Z,25.20
2022-11-24T05:19:53.307Z,25.20
2022-11-24T05:22:21.541Z,25.10
2022-11-24T05:24:49.764Z,25.00
2022-11-24T05:27:18.131Z,25.00
2022-11-24T05:29:46.228Z,24.90
2022-11-24T05:32:14.500Z,24.80
2022-11-24T05:34:42.870Z,24.80
2022-11-24T05:37:10.937Z,24.90
2022-11-24T05:39:39.178Z,25.10
2022-11-24T05:42:08.630Z,25.20
2022-11-24T05:44:36.856Z,25.10
2022-11-24T05:47:05.295Z,25.00
2022-11-24T05:49:33.606Z,25.00
2022-11-24T05:52:01.871Z,24.90
2022-11-24T05:54:30.131Z,24.90
2022-11-24T05:56:58.290Z,24.90
2022-11-24T05:59:26.548Z,24.90
2022-11-24T06:01:54.841Z,24.90
2022-11-24T06:04:23.095Z,25.10
2022-11-24T06:06:51.379Z,25.20
2022-11-24T06:09:19.691Z,25.00
2022-11-24T06:11:48.784Z,25.00
2022-11-24T06:14:17.071Z,24.90
2022-11-24T06:16:45.259Z,24.80
2022-11-24T06:19:13.354Z,24.80
2022-11-24T06:21:41.763Z,24.80
2022-11-24T06:24:10.090Z,24.80
2022-11-24T06:26:38.272Z,24.80
2022-11-24T06:29:06.620Z,25.10
2022-11-24T06:31:34.898Z,25.00
2022-11-24T06:34:05.927Z,24.80
2022-11-24T06:36:34.454Z,24.80
2022-11-24T06:39:03.374Z,24.80
2022-11-24T06:41:31.590Z,24.70
2022-11-24T06:44:02.587Z,24.80
2022-11-24T06:46:30.819Z,24.70
2022-11-24T06:48:59.499Z,24.70
2022-11-24T06:51:27.856Z,24.80
2022-11-24T06:53:55.996Z,25.00
2022-11-24T06:56:24.272Z,24.80
2022-11-24T06:58:54.080Z,24.90
2022-11-24T07:01:24.762Z,25.00
2022-11-24T07:03:56.096Z,25.00
2022-11-24T07:06:26.043Z,25.00
2022-11-24T07:08:54.568Z,25.00
2022-11-24T07:11:24.802Z,25.00
2022-11-24T07:13:58.302Z,25.00
2022-11-24T07:16:28.893Z,25.20
2022-11-24T07:18:57.902Z,25.50
2022-11-24T07:21:27.092Z,25.30
2022-11-24T07:23:57.001Z,25.30
2022-11-24T07:26:26.284Z,25.40
2022-11-24T07:28:54.442Z,25.30
2022-11-24T07:31:23.859Z,25.50
2022-11-24T07:33:53.846Z,25.40
2022-11-24T07:36:23.262Z,25.30
2022-11-24T07:38:51.920Z,25.60
2022-11-24T07:41:20.727Z,25.70
2022-11-24T07:43:49.715Z,25.70
2022-11-24T07:46:20.408Z,25.90
2022-11-24T07:48:49.011Z,26.10
2022-11-24T07:51:17.315Z,26.30
2022-11-24T07:53:46.664Z,26.30
2022-11-24T07:56:14.871Z,26.70
2022-11-24T07:58:45.069Z,27.50
2022-11-24T08:01:19.080Z,29.40
2022-11-24T08:03:47.762Z,31.70
2022-11-24T08:06:24.402Z,32.90
2022-11-24T08:08:55.137Z,32.90
2022-11-24T08:11:23.715Z,30.90
2022-11-24T08:13:52.431Z,30.50
2022-11-24T08:16:21.249Z,32.10
2022-11-24T08:18:56.707Z,31.30
2022-11-24T08:21:25.210Z,31.60
2022-11-24T08:23:57.819Z,33.20
2022-11-24T08:26:26.423Z,34.40
2022-11-24T08:28:59.346Z,34.20
2022-11-24T08:31:29.217Z,33.20
2022-11-24T08:33:57.577Z,32.00
2022-11-24T08:36:26.272Z,31.80
2022-11-24T08:38:59.112Z,34.80
2022-11-24T08:41:28.996Z,36.20
2022-11-24T08:43:57.245Z,36.50
2022-11-24T08:46:25.703Z,36.40
2022-11-24T08:48:55.752Z,38.40
2022-11-24T08:51:26.808Z,39.40
2022-11-24T08:53:59.195Z,36.70
2022-11-24T08:56:32.826Z,34.60
2022-11-24T08:59:01.416Z,33.60
2022-11-24T09:01:30.426Z,33.30
2022-11-24T09:03:59.285Z,33.10
2022-11-24T09:06:29.367Z,33.00
2022-11-24T09:08:58.674Z,32.80
2022-11-24T09:11:28.155Z,32.40
2022-11-24T09:13:56.784Z,32.50
2022-11-24T09:16:27.395Z,32.40
2022-11-24T09:19:06.938Z,32.40
2022-11-24T09:21:35.769Z,32.20
2022-11-24T09:24:04.325Z,31.90
2022-11-24T09:26:34.811Z,31.50
2022-11-24T09:29:05.141Z,31.50
2022-11-24T09:31:36.061Z,31.00
2022-11-24T09:34:06.836Z,31.00
2022-11-24T09:36:35.796Z,31.30
2022-11-24T09:39:04.596Z,31.10
2022-11-24T09:42:00.481Z,30.70
2022-11-24T09:45:03.501Z,30.90
2022-11-24T09:47:58.135Z,31.40
2022-11-24T09:50:42.311Z,30.90
2022-11-24T09:53:37.431Z,31.00
2022-11-24T09:56:27.941Z,31.60
2022-11-24T09:59:26.513Z,31.70
2022-11-24T10:01:55.131Z,32.00
2022-11-24T10:04:32.394Z,32.10
2022-11-24T10:07:23.079Z,32.30
2022-11-24T10:10:04.555Z,32.10
2022-11-24T10:13:01.691Z,31.90
2022-11-24T10:15:38.898Z,32.00
2022-11-24T10:18:25.353Z,31.70
2022-11-24T10:21:11.975Z,31.80
2022-11-24T10:24:07.011Z,31.50
2022-11-24T10:26:40.964Z,31.60
2022-11-24T10:29:19.488Z,31.70
2022-11-24T10:31:51.744Z,31.80
2022-11-24T10:34:30.332Z,31.30
2022-11-24T10:37:01.501Z,31.00
2022-11-24T10:39:59.657Z,30.80
2022-11-24T10:42:36.353Z,31.10
2022-11-24T10:45:11.859Z,31.20
2022-11-24T10:47:41.977Z,31.50
2022-11-24T10:50:23.835Z,31.50
2022-11-24T10:52:58.015Z,31.10
2022-11-24T10:55:26.573Z,30.80
2022-11-24T10:57:54.969Z,30.90
2022-11-24T11:00:23.304Z,30.80
2022-11-24T11:03:11.060Z,30.90
2022-11-24T11:06:04.910Z,31.20
2022-11-24T11:08:33.681Z,31.40
2022-11-24T11:11:31.022Z,31.00
2022-11-24T11:14:04.841Z,31.10
2022-11-24T11:16:44.251Z,31.10
2022-11-24T11:19:47.787Z,31.00
2022-11-24T11:22:28.998Z,31.20
2022-11-24T11:25:36.601Z,31.40
2022-11-24T11:28:23.122Z,31.30
2022-11-24T11:31:22.406Z,31.40
2022-11-24T11:34:09.565Z,31.40
2022-11-24T11:36:48.035Z,31.90
2022-11-24T11:39:45.344Z,31.80
2022-11-24T11:42:38.003Z,31.70
2022-11-24T11:45:18.833Z,31.70
2022-11-24T11:48:19.251Z,31.90
2022-11-24T11:51:21.580Z,32.20
2022-11-24T11:54:07.242Z,32.00
2022-11-24T11:56:54.448Z,31.70
2022-11-24T11:59:49.368Z,31.70
2022-11-24T12:02:36.073Z,31.60
2022-11-24T12:05:30.571Z,31.60
2022-11-24T12:09:11.744Z,31.50
2022-11-24T12:11:43.927Z,31.80
2022-11-24T12:14:44.668Z,32.20
2022-11-24T12:17:13.380Z,32.00
2022-11-24T12:20:01.656Z,31.90
2022-11-24T12:22:54.797Z,31.70
2022-11-24T12:25:45.145Z,31.30
2022-11-24T12:28:29.306Z,31.40
2022-11-24T12:31:07.231Z,31.70
2022-11-24T12:34:06.512Z,32.30
2022-11-24T12:36:47.315Z,32.10
2022-11-24T12:39:30.525Z,31.80
2022-11-24T12:42:12.399Z,31.70
2022-11-24T12:45:23.479Z,31.80
2022-11-24T12:48:10.715Z,31.40
2022-11-24T12:50:41.493Z,31.20
2022-11-24T12:53:22.752Z,31.40
2022-11-24T12:55:51.861Z,31.80
2022-11-24T12:58:20.162Z,31.90
2022-11-24T13:01:27.029Z,31.80
2022-11-24T13:04:21.055Z,31.60
2022-11-24T13:07:35.975Z,31.20
2022-11-24T13:10:46.522Z,31.40
2022-11-24T13:13:14.635Z,31.70
2022-11-24T13:16:34.769Z,32.20
2022-11-24T13:18:48.007Z,31.90
2022-11-24T13:21:46.180Z,31.70
2022-11-24T13:24:18.756Z,31.70
2022-11-24T13:27:15.429Z,31.50
2022-11-24T13:29:48.750Z,31.50
2022-11-24T13:32:19.978Z,31.50
2022-11-24T13:34:51.207Z,31.70
2022-11-24T13:37:40.983Z,31.80
2022-11-24T13:40:12.405Z,32.20
2022-11-24T13:42:56.133Z,32.00
2022-11-24T13:45:53.741Z,31.90
2022-11-24T13:48:22.842Z,31.80
2022-11-24T13:50:51.627Z,31.70
2022-11-24T13:53:22.991Z,31.20
2022-11-24T13:55:58.117Z,31.30
2022-11-24T13:58:44.626Z,31.70
2022-11-24T14:01:15.991Z,32.00
2022-11-24T14:04:07.170Z,31.90
2022-11-24T14:06:44.319Z,31.80
2022-11-24T14:09:31.236Z,31.70
2022-11-24T14:12:22.091Z,31.50
2022-11-24T14:14:52.140Z,31.40
2022-11-24T14:17:28.015Z,31.50
2022-11-24T14:19:57.841Z,31.50
2022-11-24T14:22:37.432Z,31.60
2022-11-24T14:25:06.974Z,31.40
2022-11-24T14:27:39.670Z,31.40
2022-11-24T14:30:10.968Z,31.30
2022-11-24T14:32:39.475Z,31.10
2022-11-24T14:35:33.666Z,31.10
2022-11-24T14:38:06.421Z,31.40
2022-11-24T14:40:59.616Z,31.50
2022-11-24T14:43:33.044Z,31.50
2022-11-24T14:46:11.756Z,31.20
2022-11-24T14:48:49.153Z,31.20
2022-11-24T14:51:30.450Z,31.20
2022-11-24T14:54:07.673Z,31.20
2022-11-24T14:56:38.620Z,31.10
2022-11-24T14:59:28.049Z,31.50
2022-11-24T15:01:56.935Z,31.50
2022-11-24T15:05:00.708Z,31.40
2022-11-24T15:07:25.684Z,31.00
2022-11-24T15:09:59.549Z,30.90
2022-11-24T15:12:38.419Z,30.60
2022-11-24T15:15:20.995Z,30.60
2022-11-24T15:17:58.846Z,30.60
2022-11-24T15:20:39.733Z,30.90
2022-11-24T15:23:16.808Z,30.90
2022-11-24T15:25:45.282Z,30.80
2022-11-24T15:28:13.602Z,30.70
2022-11-24T15:30:42.050Z,30.80
2022-11-24T15:33:18.820Z,30.90
2022-11-24T15:35:47.545Z,30.70
2022-11-24T15:38:16.244Z,30.70
2022-11-24T15:40:50.818Z,31.00
2022-11-24T15:43:39.401Z,31.00
2022-11-24T15:46:09.106Z,31.00
2022-11-24T15:48:37.426Z,30.90
2022-11-24T15:51:11.436Z,30.60
2022-11-24T15:54:00.394Z,30.80
2022-11-24T15:56:34.822Z,30.80
2022-11-24T15:59:03.602Z,31.00
2022-11-24T16:01:33.478Z,31.00
2022-11-24T16:04:02.502Z,31.20
2022-11-24T16:06:30.979Z,31.00
2022-11-24T16:08:59.159Z,30.90
2022-11-24T16:11:27.862Z,30.70
2022-11-24T16:13:56.137Z,30.60
2022-11-24T16:16:25.070Z,30.50
2022-11-24T16:18:54.051Z,30.60
2022-11-24T16:21:22.233Z,30.80
2022-11-24T16:23:50.603Z,30.80
2022-11-24T16:26:18.817Z,30.80
2022-11-24T16:28:46.952Z,30.60
2022-11-24T16:31:15.378Z,30.20
2022-11-24T16:33:44.995Z,30.20
2022-11-24T16:36:14.763Z,30.30
2022-11-24T16:38:43.010Z,30.40
2022-11-24T16:41:11.652Z,30.60
2022-11-24T16:43:40.134Z,30.70
2022-11-24T16:46:25.453Z,30.60
2022-11-24T16:48:57.915Z,30.10
2022-11-24T16:51:29.892Z,30.00
2022-11-24T16:54:03.098Z,29.80
2022-11-24T16:56:31.954Z,29.80
2022-11-24T16:59:00.242Z,29.90
2022-11-24T17:01:28.452Z,30.30
2022-11-24T17:03:56.736Z,30.20
2022-11-24T17:06:25.273Z,30.30
2022-11-24T17:08:55.483Z,29.90
2022-11-24T17:11:25.719Z,29.70
2022-11-24T17:13:54.604Z,29.50
2022-11-24T17:16:24.572Z,29.50
2022-11-24T17:18:53.668Z,29.50
2022-11-24T17:21:24.274Z,29.80
2022-11-24T17:24:01.131Z,29.90
2022-11-24T17:26:29.449Z,30.10
2022-11-24T17:28:58.176Z,29.60
2022-11-24T17:31:33.956Z,29.40
2022-11-24T17:34:04.366Z,29.30
2022-11-24T17:36:34.418Z,29.20
2022-11-24T17:39:04.471Z,29.30
2022-11-24T17:41:33.641Z,29.50
2022-11-24T17:44:02.054Z,29.70
2022-11-24T17:46:31.411Z,29.80
2022-11-24T17:48:59.731Z,29.60
2022-11-24T17:51:28.325Z,29.50
2022-11-24T17:57:00.000Z,29.10
2022-11-24T17:59:28.151Z,29.00
2022-11-24T18:01:56.381Z,29.10
2022-11-24T18:04:24.614Z,29.40
2022-11-24T18:06:52.804Z,29.50
2022-11-24T18:09:21.045Z,29.30
2022-11-24T18:11:49.266Z,29.00
2022-11-24T18:14:17.523Z,28.80
2022-11-24T18:16:47.161Z,28.80
2022-11-24T18:19:15.399Z,28.70
2022-11-24T18:21:43.846Z,28.80
2022-11-24T18:24:13.487Z,29.00
2022-11-24T18:26:42.951Z,29.20
2022-11-24T18:29:11.840Z,29.30
2022-11-24T18:31:40.652Z,28.90
2022-11-24T18:34:09.084Z,28.70
2022-11-24T18:36:37.478Z,28.70
2022-11-24T18:39:08.338Z,28.50
2022-11-24T18:41:36.840Z,28.20
2022-11-24T18:44:05.510Z,28.20
2022-11-24T18:46:33.638Z,28.50
2022-11-24T18:49:01.946Z,28.50
2022-11-24T18:51:30.490Z,28.50
2022-11-24T18:53:58.679Z,28.20
2022-11-24T18:56:27.564Z,27.90
2022-11-24T18:58:57.126Z,27.90
2022-11-24T19:01:27.639Z,27.60
2022-11-24T19:03:58.291Z,27.50
2022-11-24T19:06:30.558Z,27.50
2022-11-24T19:08:59.666Z,27.60
2022-11-24T19:11:31.345Z,27.60
2022-11-24T19:14:00.071Z,27.40
2022-11-24T19:16:28.434Z,27.30
2022-11-24T19:18:58.328Z,27.30
2022-11-24T19:21:27.930Z,27.20
2022-11-24T19:24:40.435Z,27.20
2022-11-24T19:27:08.855Z,27.20
2022-11-24T19:29:42.851Z,27.20
2022-11-24T19:32:11.513Z,27.50
2022-11-24T19:34:39.960Z,27.70
2022-11-24T19:37:08.030Z,27.80
2022-11-24T19:39:36.371Z,27.60
2022-11-24T19:42:04.963Z,27.50
2022-11-24T19:44:33.732Z,27.50
2022-11-24T19:47:02.231Z,27.50
2022-11-24T19:49:30.643Z,27.50
2022-11-24T19:51:58.939Z,27.70
2022-11-24T19:54:27.146Z,28.00
2022-11-24T19:56:55.502Z,28.10
2022-11-24T19:59:23.964Z,28.00
2022-11-24T20:01:52.172Z,27.80
2022-11-24T20:04:20.869Z,27.80
2022-11-24T20:06:49.104Z,27.70
2022-11-24T20:09:18.557Z,27.60
2022-11-24T20:11:47.343Z,27.70
2022-11-24T20:14:17.375Z,28.00
2022-11-24T20:16:45.783Z,28.20
2022-11-24T20:19:15.988Z,28.20
2022-11-24T20:21:45.146Z,28.00
2022-11-24T20:24:16.431Z,27.90
2022-11-24T20:26:50.534Z,27.80
2022-11-24T20:29:19.385Z,27.70
2022-11-24T20:31:51.022Z,27.80
2022-11-24T20:34:20.581Z,28.20
2022-11-24T20:36:49.296Z,28.30
2022-11-24T20:39:25.020Z,28.20
2022-11-24T20:41:54.956Z,28.00
2022-11-24T20:44:24.779Z,27.90
2022-11-24T20:46:56.215Z,27.70
2022-11-24T20:49:24.650Z,27.70
2022-11-24T20:51:53.685Z,27.70
2022-11-24T20:54:22.682Z,28.10
2022-11-24T20:56:51.070Z,28.20
2022-11-24T20:59:22.718Z,28.30
2022-11-24T21:01:52.591Z,28.10
2022-11-24T21:04:24.061Z,27.90
2022-11-24T21:06:52.332Z,27.80
2022-11-24T21:09:20.811Z,27.70
2022-11-24T21:11:51.969Z,27.70
2022-11-24T21:14:20.290Z,28.10
2022-11-24T21:16:48.706Z,28.40
2022-11-24T21:19:17.088Z,28.30
2022-11-24T21:21:45.564Z,28.00
2022-11-24T21:24:16.128Z,27.80
2022-11-24T21:26:45.823Z,27.70
2022-11-24T21:29:15.625Z,27.60
2022-11-24T21:31:43.942Z,27.60
2022-11-24T21:34:16.628Z,27.90
2022-11-24T21:36:45.332Z,28.00
2022-11-24T21:39:15.565Z,28.30
2022-11-24T21:41:44.498Z,28.00
2022-11-24T21:44:14.413Z,27.80
2022-11-24T21:46:48.287Z,27.70
2022-11-24T21:49:20.959Z,27.60
2022-11-24T21:51:49.239Z,27.50
2022-11-24T21:54:17.636Z,27.60
2022-11-24T21:56:46.117Z,28.10
2022-11-24T21:59:14.323Z,28.30
2022-11-24T22:01:42.713Z,28.30
2022-11-24T22:04:11.150Z,28.00
2022-11-24T22:06:39.610Z,27.80
2022-11-24T22:09:07.910Z,27.60
2022-11-24T22:11:36.198Z,27.60
2022-11-24T22:14:04.616Z,27.60
2022-11-24T22:16:33.226Z,27.90
2022-11-24T22:19:01.611Z,28.10
2022-11-24T22:21:30.197Z,28.40
2022-11-24T22:23:58.706Z,28.10
2022-11-24T22:26:28.532Z,27.90
2022-11-24T22:28:58.340Z,27.60
2022-11-24T22:31:32.421Z,27.50
2022-11-24T22:34:01.751Z,27.50
2022-11-24T22:36:31.463Z,27.80
2022-11-24T22:39:05.116Z,28.10
2022-11-24T22:41:35.832Z,28.30
2022-11-24T22:44:04.897Z,28.10
2022-11-24T22:46:33.766Z,27.80
2022-11-24T22:49:02.660Z,27.70
2022-11-24T22:51:33.361Z,27.60
2022-11-24T22:54:03.993Z,27.50
2022-11-24T22:56:33.488Z,27.50
2022-11-24T22:59:02.955Z,28.10
2022-11-24T23:01:33.015Z,28.30
2022-11-24T23:04:01.834Z,28.10
2022-11-24T23:06:32.403Z,28.00
2022-11-24T23:09:02.674Z,27.80
2022-11-24T23:11:37.955Z,27.70
2022-11-24T23:14:12.221Z,27.70
2022-11-24T23:16:41.215Z,27.70
2022-11-24T23:19:10.103Z,28.00
2022-11-24T23:21:39.541Z,28.10
2022-11-24T23:24:08.990Z,28.00
2022-11-24T23:26:40.589Z,27.70
2022-11-24T23:29:10.529Z,27.50
2022-11-24T23:31:38.830Z,27.50
2022-11-24T23:34:07.346Z,27.50
2022-11-24T23:36:35.607Z,27.40
2022-11-24T23:39:05.929Z,27.40
2022-11-24T23:41:34.229Z,27.50
2022-11-24T23:44:02.902Z,27.10
2022-11-24T23:46:31.547Z,26.60
2022-11-24T23:49:00.306Z,26.40
2022-11-24T23:51:30.847Z,26.20
2022-11-24T23:54:00.565Z,26.20
2022-11-24T23:56:31.654Z,26.10
2022-11-24T23:59:01.060Z,26.10
